createdAt,value
2022-11-22T00:00:02.943Z,27.50
2022-11-22T00:02:34.241Z,25.73
2022-11-22T00:05:03.774Z,25.27
2022-11-22T00:07:30.989Z,24.07
2022-11-22T00:09:58.233Z,24.40
2022-11-22T00:12:26.504Z,24.83
2022-11-22T00:14:56.858Z,25.93
2022-11-22T00:17:24.394Z,20.97
2022-11-22T00:19:52.463Z,22.63
2022-11-22T00:22:19.693Z,23.90
2022-11-22T00:24:47.092Z,22.30
2022-11-22T00:27:14.292Z,21.47
2022-11-22T00:29:42.583Z,22.97
2022-11-22T00:32:09.874Z,22.20
2022-11-22T00:34:38.105Z,24.70
2022-11-22T00:37:08.059Z,24.07
2022-11-22T00:39:35.594Z,23.37
2022-11-22T00:42:02.855Z,22.63
2022-11-22T00:44:30.163Z,23.77
2022-11-22T00:46:57.535Z,23.50
2022-11-22T00:49:24.743Z,23.03
2022-11-22T00:51:52.352Z,20.87
2022-11-22T00:54:19.531Z,21.27
2022-11-22T00:56:46.874Z,19.13
2022-11-22T00:59:17.122Z,17.80
2022-11-22T01:01:44.503Z,16.83
2022-11-22T01:04:11.874Z,17.57
2022-11-22T01:06:39.193Z,18.57
2022-11-22T01:09:06.442Z,18.43
2022-11-22T01:11:33.734Z,18.33
2022-11-22T01:14:03.166Z,18.20
2022-11-22T01:16:30.453Z,17.50
2022-11-22T01:18:57.704Z,14.00
2022-11-22T01:21:25.293Z,16.97
2022-11-22T01:23:52.473Z,16.27
2022-11-22T01:26:19.800Z,16.90
2022-11-22T01:28:48.022Z,15.70
2022-11-22T01:31:15.302Z,15.67
2022-11-22T01:33:43.536Z,14.23
2022-11-22T01:36:11.695Z,13.03
2022-11-22T01:38:38.893Z,15.00
2022-11-22T01:41:06.095Z,15.20
2022-11-22T01:43:33.232Z,14.03
2022-11-22T01:46:18.792Z,13.63
2022-11-22T01:49:09.362Z,12.53
2022-11-22T01:51:40.723Z,12.67
2022-11-22T01:54:16.343Z,12.17
2022-11-22T01:56:47.896Z,12.40
2022-11-22T01:59:19.531Z,11.93
2022-11-22T02:01:49.642Z,10.87
2022-11-22T02:04:18.792Z,12.47
2022-11-22T02:06:53.273Z,12.53
2022-11-22T02:09:23.132Z,12.53
2022-11-22T02:11:54.106Z,15.50
2022-11-22T02:14:27.053Z,14.93
2022-11-22T02:16:54.674Z,16.17
2022-11-22T02:19:42.234Z,16.77
2022-11-22T02:22:32.414Z,16.17
2022-11-22T02:25:28.582Z,16.10
2022-11-22T02:27:56.662Z,17.50
2022-11-22T02:30:24.099Z,16.20
2022-11-22T02:32:51.402Z,15.83
2022-11-22T02:35:27.983Z,15.63
2022-11-22T02:38:09.813Z,17.23
2022-11-22T02:40:49.795Z,16.43
2022-11-22T02:43:26.723Z,15.00
2022-11-22T02:45:54.013Z,14.50
2022-11-22T02:48:22.266Z,15.13
2022-11-22T02:50:49.506Z,14.17
2022-11-22T02:53:17.673Z,15.63
2022-11-22T02:55:45.032Z,15.03
2022-11-22T02:58:13.283Z,14.33
2022-11-22T03:00:41.639Z,13.73
2022-11-22T03:03:08.853Z,14.80
2022-11-22T03:05:37.067Z,13.73
2022-11-22T03:08:04.263Z,14.93
2022-11-22T03:10:31.815Z,15.00
2022-11-22T03:12:59.917Z,14.60
2022-11-22T03:15:27.272Z,15.67
2022-11-22T03:18:03.452Z,16.07
2022-11-22T03:20:32.808Z,15.67
2022-11-22T03:23:03.112Z,15.27
2022-11-22T03:25:31.272Z,16.73
2022-11-22T03:27:59.445Z,17.80
2022-11-22T03:30:26.694Z,16.27
2022-11-22T03:32:53.940Z,17.63
2022-11-22T03:35:21.184Z,18.03
2022-11-22T03:37:48.393Z,17.80
2022-11-22T03:40:15.853Z,20.37
2022-11-22T03:42:44.015Z,18.30
2022-11-22T03:45:12.273Z,19.10
2022-11-22T03:47:39.453Z,19.60
2022-11-22T03:50:07.314Z,19.33
2022-11-22T03:52:35.523Z,19.63
2022-11-22T03:55:03.945Z,19.50
2022-11-22T03:57:32.294Z,19.90
2022-11-22T03:59:59.513Z,20.27
2022-11-22T04:02:26.707Z,19.83
2022-11-22T04:04:54.019Z,19.40
2022-11-22T04:07:22.249Z,19.90
2022-11-22T04:09:49.559Z,20.57
2022-11-22T04:12:17.783Z,20.53
2022-11-22T04:15:09.424Z,21.37
2022-11-22T04:17:41.014Z,20.50
2022-11-22T04:20:48.563Z,23.53
2022-11-22T04:23:22.753Z,25.33
2022-11-22T04:25:52.826Z,24.33
2022-11-22T04:29:08.301Z,25.40
2022-11-22T04:31:32.666Z,26.70
2022-11-22T04:33:59.863Z,34.57
2022-11-22T04:36:27.203Z,32.00
2022-11-22T04:38:54.453Z,27.07
2022-11-22T04:41:23.534Z,26.40
2022-11-22T04:44:09.293Z,23.33
2022-11-22T04:46:36.616Z,20.97
2022-11-22T04:49:04.183Z,21.60
2022-11-22T04:51:49.852Z,23.03
2022-11-22T04:54:17.223Z,22.93
2022-11-22T04:56:44.526Z,21.80
2022-11-22T04:59:12.225Z,21.03
2022-11-22T05:01:39.346Z,19.80
2022-11-22T05:04:06.635Z,21.13
2022-11-22T05:06:33.715Z,22.83
2022-11-22T05:09:01.986Z,20.53
2022-11-22T05:11:31.124Z,24.57
2022-11-22T05:13:58.464Z,30.33
2022-11-22T05:16:25.603Z,23.13
2022-11-22T05:19:01.781Z,20.03
2022-11-22T05:21:30.364Z,18.83
2022-11-22T05:23:57.718Z,18.27
2022-11-22T05:26:33.604Z,19.73
2022-11-22T05:29:09.243Z,18.57
2022-11-22T05:31:38.565Z,18.20
2022-11-22T05:34:06.894Z,17.20
2022-11-22T05:36:35.103Z,23.40
2022-11-22T05:39:03.535Z,19.97
2022-11-22T05:41:30.944Z,18.10
2022-11-22T05:43:59.213Z,18.97
2022-11-22T05:46:28.823Z,17.07
2022-11-22T05:48:57.994Z,17.83
2022-11-22T05:51:33.676Z,17.47
2022-11-22T05:54:02.477Z,16.83
2022-11-22T05:56:30.864Z,17.53
2022-11-22T05:58:59.656Z,16.90
2022-11-22T06:01:26.944Z,17.53
2022-11-22T06:03:54.585Z,15.50
2022-11-22T06:06:22.115Z,17.00
2022-11-22T06:08:51.563Z,16.43
2022-11-22T06:11:22.551Z,17.60
2022-11-22T06:13:56.004Z,16.93
2022-11-22T06:16:24.825Z,18.23
2022-11-22T06:18:54.146Z,15.93
2022-11-22T06:21:24.164Z,16.50
2022-11-22T06:23:54.084Z,16.57
2022-11-22T06:26:22.973Z,16.20
2022-11-22T06:28:51.176Z,16.90
2022-11-22T06:31:24.660Z,17.50
2022-11-22T06:33:54.745Z,16.23
2022-11-22T06:36:25.523Z,16.23
2022-11-22T06:38:53.586Z,16.67
2022-11-22T06:41:24.333Z,17.23
2022-11-22T06:43:53.122Z,16.13
2022-11-22T06:46:22.598Z,16.40
2022-11-22T06:48:50.362Z,18.57
2022-11-22T06:51:21.799Z,19.60
2022-11-22T06:53:50.340Z,18.17
2022-11-22T06:56:23.942Z,17.93
2022-11-22T06:58:52.642Z,19.27
2022-11-22T07:01:28.611Z,33.80
2022-11-22T07:04:00.999Z,29.80
2022-11-22T07:06:31.428Z,26.67
2022-11-22T07:09:00.323Z,20.40
2022-11-22T07:11:29.924Z,20.33
2022-11-22T07:14:05.443Z,20.03
2022-11-22T07:16:35.358Z,20.00
2022-11-22T07:19:02.566Z,19.40
2022-11-22T07:21:30.792Z,27.70
2022-11-22T07:23:57.928Z,27.07
2022-11-22T07:26:26.532Z,21.33
2022-11-22T07:28:53.687Z,24.50
2022-11-22T07:31:21.516Z,25.90
2022-11-22T07:33:48.816Z,27.17
2022-11-22T07:36:18.405Z,26.67
2022-11-22T07:38:45.968Z,24.13
2022-11-22T07:41:13.838Z,25.67
2022-11-22T07:43:41.572Z,26.80
2022-11-22T07:46:24.935Z,24.30
2022-11-22T07:48:52.345Z,23.07
2022-11-22T07:51:19.562Z,25.83
2022-11-22T07:53:46.802Z,23.37
2022-11-22T07:56:14.393Z,25.83
2022-11-22T07:58:41.767Z,22.03
2022-11-22T08:01:14.232Z,23.20
2022-11-22T08:03:42.614Z,22.60
2022-11-22T08:06:12.453Z,24.00
2022-11-22T08:08:40.441Z,23.13
2022-11-22T08:11:08.621Z,24.87
2022-11-22T08:13:36.870Z,25.80
2022-11-22T08:16:07.581Z,24.63
2022-11-22T08:18:36.331Z,22.40
2022-11-22T08:21:06.121Z,25.00
2022-11-22T08:23:33.678Z,24.00
2022-11-22T08:26:01.621Z,25.43
2022-11-22T08:28:29.322Z,26.03
2022-11-22T08:31:02.882Z,26.13
2022-11-22T08:33:30.082Z,25.97
2022-11-22T08:35:57.275Z,24.60
2022-11-22T08:38:24.590Z,26.23
2022-11-22T08:40:52.213Z,25.37
2022-11-22T08:43:20.365Z,24.40
2022-11-22T08:45:53.441Z,24.07
2022-11-22T08:48:22.415Z,24.83
2022-11-22T08:50:52.537Z,24.80
2022-11-22T08:53:19.817Z,24.70
2022-11-22T08:55:47.287Z,23.33
2022-11-22T08:58:14.569Z,24.60
2022-11-22T09:00:41.963Z,24.90
2022-11-22T09:03:09.716Z,24.67
2022-11-22T09:08:24.813Z,22.53
2022-11-22T09:10:53.042Z,23.33
2022-11-22T09:13:21.213Z,21.97
2022-11-22T09:15:48.330Z,21.43
2022-11-22T09:18:15.579Z,22.60
2022-11-22T09:20:42.724Z,22.70
2022-11-22T09:23:09.888Z,23.10
2022-11-22T09:25:37.061Z,21.23
2022-11-22T09:28:04.348Z,21.57
2022-11-22T09:30:31.846Z,20.83
2022-11-22T09:32:58.951Z,19.90
2022-11-22T09:35:26.083Z,20.60
2022-11-22T09:37:53.297Z,19.33
2022-11-22T09:40:21.061Z,21.17
2022-11-22T09:43:08.241Z,20.63
2022-11-22T09:46:08.522Z,20.30
2022-11-22T09:48:44.487Z,21.00
2022-11-22T09:51:21.773Z,20.70
2022-11-22T09:53:58.133Z,20.80
2022-11-22T09:56:27.246Z,21.13
2022-11-22T09:59:12.911Z,19.27
2022-11-22T10:01:53.943Z,19.40
2022-11-22T10:04:41.122Z,20.93
2022-11-22T10:07:17.354Z,19.97
2022-11-22T10:09:49.966Z,19.53
2022-11-22T10:12:32.239Z,19.03
2022-11-22T10:15:12.326Z,17.40
2022-11-22T10:18:14.880Z,17.90
2022-11-22T10:20:48.592Z,17.60
2022-11-22T10:23:25.027Z,18.13
2022-11-22T10:26:13.987Z,15.90
2022-11-22T10:29:06.472Z,16.40
2022-11-22T10:31:39.441Z,16.60
2022-11-22T10:34:18.544Z,15.83
2022-11-22T10:36:57.371Z,16.23
2022-11-22T10:39:59.246Z,15.57
2022-11-22T10:42:54.153Z,14.43
2022-11-22T10:45:40.832Z,14.90
2022-11-22T10:48:21.995Z,15.40
2022-11-22T10:51:26.933Z,14.93
2022-11-22T10:54:18.144Z,15.53
2022-11-22T10:57:17.982Z,14.93
2022-11-22T11:00:03.128Z,15.00
2022-11-22T11:03:03.204Z,15.27
2022-11-22T11:06:15.307Z,14.67
2022-11-22T11:09:12.139Z,15.87
2022-11-22T11:11:28.972Z,15.03
2022-11-22T11:14:13.287Z,14.10
2022-11-22T11:16:41.071Z,13.97
2022-11-22T11:19:11.392Z,14.07
2022-11-22T11:21:38.524Z,14.07
2022-11-22T11:24:16.531Z,13.73
2022-11-22T11:26:53.798Z,13.00
2022-11-22T11:29:49.763Z,13.50
2022-11-22T11:32:22.202Z,13.47
2022-11-22T11:35:01.707Z,14.53
2022-11-22T11:37:36.992Z,13.87
2022-11-22T11:40:06.613Z,14.93
2022-11-22T11:42:35.771Z,13.23
2022-11-22T11:45:33.198Z,14.07
2022-11-22T11:48:00.443Z,13.37
2022-11-22T11:50:31.107Z,13.73
2022-11-22T11:53:05.768Z,13.43
2022-11-22T11:55:36.517Z,13.40
2022-11-22T11:58:17.495Z,13.70
2022-11-22T12:00:45.798Z,14.30
2022-11-22T12:03:17.969Z,16.80
2022-11-22T12:05:45.852Z,14.17
2022-11-22T12:08:34.218Z,15.73
2022-11-22T12:11:20.889Z,20.90
2022-11-22T12:16:46.687Z,17.70
2022-11-22T12:19:28.737Z,18.07
2022-11-22T12:22:29.419Z,18.60
2022-11-22T12:25:33.587Z,19.63
2022-11-22T12:28:28.072Z,20.73
2022-11-22T12:31:32.337Z,20.07
2022-11-22T12:34:12.042Z,20.53
2022-11-22T12:36:53.047Z,19.27
2022-11-22T12:39:26.783Z,19.93
2022-11-22T12:42:17.452Z,18.97
2022-11-22T12:44:55.277Z,19.13
2022-11-22T12:47:34.284Z,18.93
2022-11-22T12:50:38.617Z,18.87
2022-11-22T12:53:15.413Z,19.73
2022-11-22T12:56:17.302Z,19.67
2022-11-22T12:58:50.321Z,18.53
2022-11-22T13:01:38.159Z,20.77
2022-11-22T13:04:11.559Z,19.33
2022-11-22T13:06:59.372Z,19.63
2022-11-22T13:09:36.483Z,19.53
2022-11-22T13:12:12.633Z,21.43
2022-11-22T13:14:48.037Z,21.97
2022-11-22T13:17:17.672Z,20.17
2022-11-22T13:20:05.877Z,18.67
2022-11-22T13:22:57.492Z,18.67
2022-11-22T13:26:00.804Z,19.20
2022-11-22T13:28:33.123Z,19.67
2022-11-22T13:31:06.766Z,21.63
2022-11-22T13:33:36.371Z,19.93
2022-11-22T13:36:23.152Z,19.87
2022-11-22T13:38:57.876Z,16.97
2022-11-22T13:42:04.978Z,18.53
2022-11-22T13:44:32.562Z,17.97
2022-11-22T13:47:03.553Z,19.00
2022-11-22T13:49:48.858Z,17.00
2022-11-22T13:52:16.838Z,18.50
2022-11-22T13:54:47.087Z,18.07
2022-11-22T13:57:34.811Z,17.33
2022-11-22T14:00:14.412Z,16.83
2022-11-22T14:02:48.940Z,16.67
2022-11-22T14:05:41.050Z,16.43
2022-11-22T14:08:35.614Z,15.90
2022-11-22T14:11:12.349Z,15.43
2022-11-22T14:13:48.445Z,15.07
2022-11-22T14:16:26.147Z,14.37
2022-11-22T14:19:17.670Z,13.63
2022-11-22T14:22:17.722Z,15.53
2022-11-22T14:25:10.461Z,14.63
2022-11-22T14:28:18.593Z,28.00
2022-11-22T14:30:53.824Z,27.17
2022-11-22T14:33:26.878Z,18.10
2022-11-22T14:36:06.569Z,16.37
2022-11-22T14:38:35.875Z,17.13
2022-11-22T14:41:28.069Z,16.67
2022-11-22T14:44:20.063Z,16.63
2022-11-22T14:46:56.890Z,16.37
2022-11-22T14:49:44.962Z,16.33
2022-11-22T14:52:24.532Z,16.30
2022-11-22T14:54:58.207Z,16.77
2022-11-22T14:57:28.477Z,17.57
2022-11-22T15:00:11.104Z,19.07
2022-11-22T15:03:02.958Z,16.13
2022-11-22T15:09:17.050Z,17.13
2022-11-22T15:09:20.092Z,16.93
2022-11-22T15:11:36.814Z,17.17
2022-11-22T15:14:43.847Z,16.17
2022-11-22T15:58:05.004Z,18.53
2022-11-22T16:00:32.999Z,17.80
2022-11-22T16:03:03.033Z,17.13
2022-11-22T16:06:10.076Z,27.47
2022-11-22T16:08:26.432Z,24.70
2022-11-22T16:10:58.417Z,20.80
2022-11-22T16:13:28.207Z,22.83
2022-11-22T16:16:13.941Z,24.23
2022-11-22T16:18:43.370Z,24.63
2022-11-22T16:21:11.388Z,23.17
2022-11-22T16:23:45.416Z,21.00
2022-11-22T16:26:29.631Z,20.53
2022-11-22T16:29:17.281Z,20.03
2022-11-22T16:31:44.541Z,20.13
2022-11-22T16:34:15.327Z,19.63
2022-11-22T16:36:42.612Z,19.80
2022-11-22T16:39:10.113Z,18.13
2022-11-22T16:41:38.282Z,19.63
2022-11-22T16:44:13.188Z,20.97
2022-11-22T16:46:44.062Z,19.03
2022-11-22T16:49:22.808Z,18.97
2022-11-22T16:51:51.241Z,19.47
2022-11-22T16:54:20.360Z,17.93
2022-11-22T16:56:48.176Z,19.50
2022-11-22T16:59:15.552Z,20.07
2022-11-22T17:01:43.985Z,21.87
2022-11-22T17:04:22.976Z,23.10
2022-11-22T17:06:50.747Z,23.77
2022-11-22T17:09:18.013Z,25.40
2022-11-22T17:11:46.448Z,27.13
2022-11-22T17:14:18.217Z,26.70
2022-11-22T17:16:46.121Z,26.07
2022-11-22T17:19:37.567Z,25.93
2022-11-22T17:22:01.392Z,23.37
2022-11-22T17:24:29.715Z,22.83
2022-11-22T17:26:57.109Z,18.67
2022-11-22T17:32:15.014Z,17.83
2022-11-22T17:34:42.322Z,17.53
2022-11-22T17:37:13.876Z,19.27
2022-11-22T17:39:41.209Z,19.17
2022-11-22T17:42:08.976Z,20.40
2022-11-22T17:44:36.236Z,23.17
2022-11-22T17:47:03.861Z,27.20
2022-11-22T17:49:31.429Z,27.10
2022-11-22T17:51:59.036Z,25.03
2022-11-22T17:54:26.247Z,24.43
2022-11-22T17:56:53.392Z,28.20
2022-11-22T17:59:20.671Z,28.93
2022-11-22T18:01:47.873Z,29.17
2022-11-22T18:04:17.307Z,25.23
2022-11-22T18:06:44.686Z,25.33
2022-11-22T18:09:12.368Z,21.63
2022-11-22T18:11:39.632Z,20.73
2022-11-22T18:14:07.322Z,21.13
2022-11-22T18:16:34.540Z,24.53
2022-11-22T18:19:01.816Z,22.17
2022-11-22T18:21:31.121Z,22.83
2022-11-22T18:23:59.373Z,25.23
2022-11-22T18:26:42.619Z,25.93
2022-11-22T18:29:41.677Z,25.33
2022-11-22T18:32:00.547Z,25.13
2022-11-22T18:34:28.762Z,25.83
2022-11-22T18:39:44.201Z,22.63
2022-11-22T18:42:16.377Z,21.63
2022-11-22T18:44:43.658Z,21.27
2022-11-22T18:47:11.825Z,23.63
2022-11-22T18:49:40.240Z,20.87
2022-11-22T18:52:10.769Z,21.87
2022-11-22T18:54:40.720Z,25.27
2022-11-22T18:57:07.838Z,23.47
2022-11-22T18:59:35.141Z,21.63
2022-11-22T19:02:02.287Z,27.17
2022-11-22T19:04:30.477Z,27.43
2022-11-22T19:06:58.599Z,30.30
2022-11-22T19:09:25.848Z,28.17
2022-11-22T19:11:58.634Z,25.43
2022-11-22T19:14:29.387Z,24.57
2022-11-22T19:16:57.083Z,23.70
2022-11-22T19:19:24.912Z,23.87
2022-11-22T19:21:53.182Z,30.73
2022-11-22T19:24:20.357Z,33.83
2022-11-22T19:26:48.571Z,28.17
2022-11-22T19:29:16.197Z,28.80
2022-11-22T19:31:43.557Z,27.17
2022-11-22T19:34:10.952Z,25.50
2022-11-22T19:36:40.757Z,25.17
2022-11-22T19:39:13.326Z,25.57
2022-11-22T19:41:44.956Z,25.70
2022-11-22T19:44:12.350Z,24.20
2022-11-22T19:46:41.634Z,22.83
2022-11-22T19:49:09.438Z,23.43
2022-11-22T19:51:37.258Z,22.63
2022-11-22T19:54:04.962Z,26.20
2022-11-22T19:56:35.619Z,29.67
2022-11-22T19:59:05.416Z,33.77
2022-11-22T20:01:34.747Z,33.33
2022-11-22T20:04:05.948Z,31.07
2022-11-22T20:06:36.459Z,25.23
2022-11-22T20:09:10.176Z,26.50
2022-11-22T20:11:38.808Z,24.97
2022-11-22T20:14:06.630Z,22.03
2022-11-22T20:16:34.003Z,21.87
2022-11-22T20:19:04.659Z,20.70
2022-11-22T20:21:33.352Z,21.40
2022-11-22T20:24:01.597Z,22.70
2022-11-22T20:26:30.486Z,21.27
2022-11-22T20:29:07.599Z,21.40
2022-11-22T20:31:39.648Z,20.47
2022-11-22T20:34:08.253Z,20.83
2022-11-22T20:36:36.320Z,21.67
2022-11-22T20:39:09.737Z,21.30
2022-11-22T20:41:39.455Z,21.47
2022-11-22T20:44:10.865Z,20.87
2022-11-22T20:46:38.489Z,21.30
2022-11-22T20:49:06.740Z,21.17
2022-11-22T20:51:40.098Z,19.27
2022-11-22T20:54:19.618Z,18.90
2022-11-22T20:56:56.091Z,18.70
2022-11-22T20:59:23.438Z,18.03
2022-11-22T21:01:51.384Z,18.43
2022-11-22T21:04:23.452Z,18.20
2022-11-22T21:06:52.013Z,18.50
2022-11-22T21:09:20.419Z,19.13
2022-11-22T21:11:48.311Z,18.53
2022-11-22T21:14:16.247Z,18.30
2022-11-22T21:16:46.711Z,18.03
2022-11-22T21:19:15.728Z,17.37
2022-11-22T21:21:43.527Z,17.87
2022-11-22T21:24:13.406Z,17.33
2022-11-22T21:26:41.505Z,19.10
2022-11-22T21:29:16.436Z,17.73
2022-11-22T21:31:44.334Z,18.40
2022-11-22T21:34:12.864Z,16.63
2022-11-22T21:36:40.237Z,17.37
2022-11-22T21:39:07.619Z,18.10
2022-11-22T21:41:40.901Z,17.97
2022-11-22T21:44:11.572Z,16.63
2022-11-22T21:46:40.987Z,17.07
2022-11-22T21:49:08.938Z,17.03
2022-11-22T21:51:41.108Z,16.93
2022-11-22T21:54:09.998Z,18.00
2022-11-22T21:56:38.385Z,16.87
2022-11-22T21:59:06.188Z,16.93
2022-11-22T22:01:33.773Z,17.17
2022-11-22T22:04:04.619Z,17.93
2022-11-22T22:06:33.741Z,17.17
2022-11-22T22:09:01.460Z,16.57
2022-11-22T22:11:28.733Z,17.07
2022-11-22T22:13:56.814Z,15.80
2022-11-22T22:16:26.031Z,16.67
2022-11-22T22:18:54.465Z,17.07
2022-11-22T22:21:22.332Z,18.37
2022-11-22T22:23:49.820Z,16.40
2022-11-22T22:26:18.468Z,18.47
2022-11-22T22:28:46.645Z,18.70
2022-11-22T22:31:24.649Z,17.27
2022-11-22T22:33:54.751Z,17.87
2022-11-22T22:36:23.925Z,15.87
2022-11-22T22:38:51.340Z,15.07
2022-11-22T22:41:18.803Z,14.87
2022-11-22T22:43:48.055Z,16.57
2022-11-22T22:46:16.671Z,15.40
2022-11-22T22:48:44.145Z,16.23
2022-11-22T22:51:15.038Z,15.37
2022-11-22T22:53:43.403Z,16.10
2022-11-22T22:56:12.390Z,16.93
2022-11-22T22:58:39.682Z,15.97
2022-11-22T23:01:13.753Z,16.40
2022-11-22T23:03:41.647Z,15.93
2022-11-22T23:06:13.578Z,16.63
2022-11-22T23:08:43.993Z,15.57
2022-11-22T23:11:12.683Z,16.00
2022-11-22T23:13:42.229Z,16.23
2022-11-22T23:16:14.908Z,17.20
2022-11-22T23:18:43.851Z,16.00
2022-11-22T23:21:13.849Z,17.63
2022-11-22T23:23:41.145Z,17.10
2022-11-22T23:26:11.143Z,17.67
2022-11-22T23:28:39.053Z,17.57
2022-11-22T23:31:10.567Z,18.20
2022-11-22T23:33:37.839Z,19.03
2022-11-22T23:36:10.407Z,19.60
2022-11-22T23:38:38.568Z,21.73
2022-11-22T23:41:06.251Z,20.43
2022-11-22T23:43:33.539Z,20.60
2022-11-22T23:46:00.693Z,19.80
2022-11-22T23:48:28.048Z,19.70
2022-11-22T23:50:55.392Z,21.00
2022-11-22T23:53:22.633Z,20.03
2022-11-22T23:55:49.773Z,20.03
2022-11-22T23:58:16.959Z,20.67
